Time;durP1;ratioP1;P1;durP2;ratioP2;P2;SDS_P1;SDS_P2;PMS_P1;PMS_P2;Temp;Humidity;BMP_temperature;BMP_pressure;BME280_temperature;BME280_humidity;BME280_pressure;Samples;Min_cycle;Max_cycle;Signal;HPM_P1;HPM_P2
2021/10/30 00:02:02;;;;;;;5.30;3.97;;;;;;;;;;7394175;19;20038;-59
2021/10/30 00:04:30;;;;;;;6.00;4.07;;;;;;;;;;7394039;19;20054;-60
2021/10/30 00:06:59;;;;;;;6.30;4.25;;;;;;;;;;7394594;19;20479;-59
2021/10/30 00:09:27;;;;;;;5.28;3.90;;;;;;;;;;7392541;19;20010;-60
2021/10/30 00:11:54;;;;;;;7.22;4.97;;;;;;;;;;7393995;19;20010;-60
2021/10/30 00:14:22;;;;;;;5.55;3.75;;;;;;;;;;7395962;19;20106;-60
2021/10/30 00:16:50;;;;;;;6.70;4.60;;;;;;;;;;7393227;19;20010;-59
2021/10/30 00:19:18;;;;;;;7.78;4.40;;;;;;;;;;7393678;19;20038;-60
2021/10/30 00:21:46;;;;;;;7.07;4.45;;;;;;;;;;7393887;19;20011;-60
2021/10/30 00:24:13;;;;;;;7.60;4.72;;;;;;;;;;7393761;19;20018;-60
2021/10/30 00:26:41;;;;;;;6.57;4.15;;;;;;;;;;7393323;19;20015;-60
2021/10/30 00:29:09;;;;;;;5.55;4.35;;;;;;;;;;7391376;19;20010;-60
2021/10/30 00:31:37;;;;;;;8.45;4.63;;;;;;;;;;7391149;19;20018;-60
2021/10/30 00:34:04;;;;;;;7.35;4.95;;;;;;;;;;7393029;19;20038;-59
2021/10/30 00:36:32;;;;;;;6.82;4.80;;;;;;;;;;7393873;19;20015;-60
2021/10/30 00:38:59;;;;;;;5.35;3.72;;;;;;;;;;7393119;19;20471;-60
2021/10/30 00:41:27;;;;;;;7.15;4.88;;;;;;;;;;7391233;19;20025;-60
2021/10/30 00:43:56;;;;;;;6.63;4.50;;;;;;;;;;7392331;19;20468;-60
2021/10/30 00:46:24;;;;;;;7.85;4.38;;;;;;;;;;7392550;19;20010;-60
2021/10/30 00:48:51;;;;;;;5.82;4.00;;;;;;;;;;7392285;19;20031;-59
2021/10/30 00:51:19;;;;;;;8.27;4.38;;;;;;;;;;7390979;19;20056;-60
2021/10/30 00:53:47;;;;;;;6.03;4.53;;;;;;;;;;7392476;19;20007;-60
2021/10/30 00:56:16;;;;;;;8.75;4.47;;;;;;;;;;7387939;19;20014;-60
2021/10/30 00:58:46;;;;;;;12.63;5.15;;;;;;;;;;7392303;19;20033;-60
2021/10/30 01:01:13;;;;;;;8.57;5.07;;;;;;;;;;7392886;19;20037;-59
2021/10/30 01:03:41;;;;;;;11.55;4.90;;;;;;;;;;7392566;19;20030;-60
2021/10/30 01:06:08;;;;;;;6.57;4.35;;;;;;;;;;7392199;19;20800;-60
2021/10/30 01:08:35;;;;;;;5.88;4.75;;;;;;;;;;7391696;19;20035;-60
2021/10/30 01:11:05;;;;;;;8.60;4.97;;;;;;;;;;7390683;19;20014;-60
2021/10/30 01:13:33;;;;;;;8.95;4.85;;;;;;;;;;7392382;19;20014;-60
2021/10/30 01:16:01;;;;;;;8.88;4.80;;;;;;;;;;7391713;19;20483;-60
2021/10/30 01:18:28;;;;;;;7.05;4.32;;;;;;;;;;7392085;19;20006;-60
2021/10/30 01:20:58;;;;;;;9.32;4.68;;;;;;;;;;7392545;19;20014;-60
2021/10/30 01:23:27;;;;;;;7.25;4.82;;;;;;;;;;7390701;19;20031;-60
2021/10/30 01:26:01;;;;;;;6.03;4.45;;;;;;;;;;7391273;19;20015;-60
2021/10/30 01:28:34;;;;;;;7.38;4.35;;;;;;;;;;7391611;19;20023;-60
2021/10/30 01:31:02;;;;;;;8.48;4.68;;;;;;;;;;7390351;19;20015;-59
2021/10/30 01:33:30;;;;;;;5.38;3.90;;;;;;;;;;7391332;19;20548;-60
2021/10/30 01:36:05;;;;;;;6.85;4.22;;;;;;;;;;7390992;19;20034;-59
2021/10/30 01:38:33;;;;;;;6.63;4.22;;;;;;;;;;7390833;19;20074;-60
2021/10/30 01:41:01;;;;;;;8.68;4.43;;;;;;;;;;7391480;19;20022;-60
2021/10/30 01:43:29;;;;;;;7.40;4.70;;;;;;;;;;7391506;19;20025;-60
2021/10/30 01:45:56;;;;;;;5.93;4.65;;;;;;;;;;7391173;19;20019;-60
2021/10/30 01:48:32;;;;;;;7.90;4.95;;;;;;;;;;7391521;19;20020;-60
2021/10/30 01:51:00;;;;;;;5.72;4.00;;;;;;;;;;7389676;19;20023;-59
2021/10/30 01:53:28;;;;;;;6.72;4.40;;;;;;;;;;7389920;19;20014;-60
2021/10/30 01:55:56;;;;;;;7.43;5.00;;;;;;;;;;7390890;19;20018;-60
2021/10/30 01:58:23;;;;;;;5.55;4.00;;;;;;;;;;7390442;19;20014;-60
2021/10/30 02:00:52;;;;;;;6.18;4.22;;;;;;;;;;7390072;19;20491;-60
2021/10/30 02:03:22;;;;;;;5.95;4.53;;;;;;;;;;7390334;19;20010;-60
2021/10/30 02:05:52;;;;;;;9.07;4.50;;;;;;;;;;7389940;19;20483;-60
2021/10/30 02:08:20;;;;;;;6.32;4.00;;;;;;;;;;7388930;19;20019;-60
2021/10/30 02:10:48;;;;;;;6.80;3.88;;;;;;;;;;7389093;19;20018;-60
2021/10/30 02:13:21;;;;;;;6.57;4.60;;;;;;;;;;7390138;19;20459;-60
2021/10/30 02:15:50;;;;;;;6.68;4.07;;;;;;;;;;7390303;19;20085;-61
2021/10/30 02:18:17;;;;;;;5.72;4.10;;;;;;;;;;7389858;19;20006;-59
2021/10/30 02:20:45;;;;;;;5.63;3.35;;;;;;;;;;7389413;19;20019;-60
2021/10/30 02:23:13;;;;;;;9.40;4.60;;;;;;;;;;7390059;19;20007;-60
2021/10/30 02:25:41;;;;;;;4.90;3.58;;;;;;;;;;7387974;19;20014;-60
2021/10/30 02:28:09;;;;;;;8.32;4.80;;;;;;;;;;7389870;19;20034;-60
2021/10/30 02:30:37;;;;;;;6.93;4.70;;;;;;;;;;7389271;19;20070;-59
2021/10/30 02:33:05;;;;;;;7.15;4.25;;;;;;;;;;7389898;19;20027;-60
2021/10/30 02:35:32;;;;;;;6.97;3.85;;;;;;;;;;7390185;19;20011;-60
2021/10/30 02:38:00;;;;;;;6.80;3.63;;;;;;;;;;7390265;19;20018;-60
2021/10/30 02:40:28;;;;;;;6.63;4.97;;;;;;;;;;7387416;19;20010;-60
2021/10/30 02:42:55;;;;;;;7.47;4.28;;;;;;;;;;7389378;19;20395;-60
2021/10/30 02:45:23;;;;;;;5.97;4.25;;;;;;;;;;7389469;19;20007;-59
2021/10/30 02:47:50;;;;;;;6.28;4.07;;;;;;;;;;7388897;19;20015;-60
2021/10/30 02:50:19;;;;;;;8.57;4.68;;;;;;;;;;7387927;19;20356;-60
2021/10/30 02:52:47;;;;;;;7.13;4.05;;;;;;;;;;7389303;19;20033;-60
2021/10/30 02:55:14;;;;;;;6.78;4.05;;;;;;;;;;7388534;19;20726;-59
2021/10/30 02:57:46;;;;;;;5.82;4.20;;;;;;;;;;7389167;19;20023;-60
2021/10/30 03:00:15;;;;;;;6.43;3.85;;;;;;;;;;7389154;19;20014;-60
2021/10/30 03:02:42;;;;;;;6.80;4.07;;;;;;;;;;7388774;19;20039;-60
2021/10/30 03:05:10;;;;;;;9.25;4.35;;;;;;;;;;7389985;19;20011;-59
2021/10/30 03:07:38;;;;;;;6.72;4.43;;;;;;;;;;7395939;19;20014;-59
2021/10/30 03:10:07;;;;;;;9.77;4.75;;;;;;;;;;7395932;19;20015;-60
2021/10/30 03:12:35;;;;;;;7.75;4.32;;;;;;;;;;7396427;19;20093;-60
2021/10/30 03:15:05;;;;;;;7.32;4.50;;;;;;;;;;7397868;19;20023;-60
2021/10/30 03:17:32;;;;;;;7.55;5.03;;;;;;;;;;7396068;19;20030;-60
2021/10/30 03:19:59;;;;;;;7.40;4.63;;;;;;;;;;7397699;19;20015;-60
2021/10/30 03:22:27;;;;;;;5.97;3.83;;;;;;;;;;7395358;19;20426;-60
2021/10/30 03:24:55;;;;;;;7.38;4.65;;;;;;;;;;7395368;19;20022;-60
2021/10/30 03:27:23;;;;;;;6.93;4.18;;;;;;;;;;7398849;19;20086;-60
2021/10/30 03:29:51;;;;;;;260.38;127.78;;;;;;;;;;7394398;19;20091;-59
2021/10/30 03:32:19;;;;;;;27.23;14.27;;;;;;;;;;7392694;19;20014;-60
2021/10/30 03:34:47;;;;;;;7.57;5.28;;;;;;;;;;7394735;19;20011;-59
2021/10/30 03:37:15;;;;;;;6.25;4.57;;;;;;;;;;7395431;19;20002;-60
2021/10/30 03:39:42;;;;;;;5.50;4.05;;;;;;;;;;7393544;19;20007;-60
2021/10/30 03:42:10;;;;;;;7.72;4.70;;;;;;;;;;7394598;19;20390;-60
2021/10/30 03:44:37;;;;;;;9.18;4.75;;;;;;;;;;7395025;19;20031;-60
2021/10/30 03:47:05;;;;;;;9.55;4.10;;;;;;;;;;7394565;19;20014;-60
2021/10/30 03:49:33;;;;;;;5.25;4.13;;;;;;;;;;7394733;19;20094;-60
2021/10/30 03:52:00;;;;;;;7.00;4.75;;;;;;;;;;7393059;19;20010;-60
2021/10/30 03:54:28;;;;;;;7.50;5.00;;;;;;;;;;7392941;19;20019;-59
2021/10/30 03:56:55;;;;;;;9.55;4.85;;;;;;;;;;7394524;19;20014;-59
2021/10/30 03:59:23;;;;;;;7.68;4.85;;;;;;;;;;7394569;19;20021;-59
2021/10/30 04:01:51;;;;;;;6.68;4.53;;;;;;;;;;7393625;19;20086;-60
2021/10/30 04:04:19;;;;;;;7.80;4.72;;;;;;;;;;7394559;19;20006;-59
2021/10/30 04:06:46;;;;;;;7.47;4.30;;;;;;;;;;7394000;19;20018;-60
2021/10/30 04:09:15;;;;;;;5.22;3.67;;;;;;;;;;7394304;19;20022;-59
2021/10/30 04:11:43;;;;;;;7.07;4.03;;;;;;;;;;7392306;19;20010;-59
2021/10/30 04:14:10;;;;;;;7.18;4.50;;;;;;;;;;7395262;19;20370;-60
2021/10/30 04:16:38;;;;;;;7.18;4.95;;;;;;;;;;7393338;19;20029;-60
2021/10/30 04:19:06;;;;;;;6.38;4.43;;;;;;;;;;7394439;19;20039;-59
2021/10/30 04:21:33;;;;;;;6.57;4.32;;;;;;;;;;7393178;19;20016;-60
2021/10/30 04:24:02;;;;;;;5.20;3.80;;;;;;;;;;7393784;19;20028;-59
2021/10/30 04:26:30;;;;;;;9.23;5.10;;;;;;;;;;7393176;19;20054;-60
2021/10/30 04:28:57;;;;;;;9.50;5.35;;;;;;;;;;7393353;19;20011;-59
2021/10/30 04:31:27;;;;;;;8.63;5.90;;;;;;;;;;7392571;19;20014;-61
2021/10/30 04:33:59;;;;;;;23.30;14.65;;;;;;;;;;7393360;19;20011;-60
2021/10/30 04:36:30;;;;;;;10.02;6.47;;;;;;;;;;7392915;19;20010;-60
2021/10/30 04:39:03;;;;;;;11.38;5.90;;;;;;;;;;7392895;19;20014;-60
2021/10/30 04:41:30;;;;;;;8.35;4.90;;;;;;;;;;7392681;19;20604;-60
2021/10/30 04:43:58;;;;;;;9.98;6.50;;;;;;;;;;7392866;19;20366;-60
2021/10/30 04:46:25;;;;;;;9.15;5.47;;;;;;;;;;7393102;19;20074;-60
2021/10/30 04:48:53;;;;;;;6.50;5.10;;;;;;;;;;7392538;19;20010;-60
2021/10/30 04:51:21;;;;;;;9.07;5.40;;;;;;;;;;7391049;19;20030;-59
2021/10/30 04:53:48;;;;;;;7.78;5.90;;;;;;;;;;7392272;19;20010;-60
2021/10/30 04:56:17;;;;;;;10.00;5.88;;;;;;;;;;7392866;19;20018;-51
2021/10/30 04:58:45;;;;;;;13.77;8.73;;;;;;;;;;7392483;19;20011;-60
2021/10/30 05:01:15;;;;;;;8.90;5.93;;;;;;;;;;7392026;19;20011;-60
2021/10/30 05:03:44;;;;;;;9.70;5.90;;;;;;;;;;7392243;19;20013;-60
2021/10/30 05:06:13;;;;;;;10.00;6.65;;;;;;;;;;7392353;19;20030;-60
2021/10/30 05:08:40;;;;;;;11.32;6.03;;;;;;;;;;7392245;19;20077;-60
2021/10/30 05:11:09;;;;;;;10.30;6.28;;;;;;;;;;7391979;19;20015;-59
2021/10/30 05:13:37;;;;;;;9.63;5.80;;;;;;;;;;7392689;19;20070;-60
2021/10/30 05:16:04;;;;;;;9.27;6.18;;;;;;;;;;7391809;19;20034;-59
2021/10/30 05:18:32;;;;;;;8.25;5.93;;;;;;;;;;7391781;19;20025;-60
2021/10/30 05:20:59;;;;;;;10.15;6.15;;;;;;;;;;7391397;19;20010;-60
2021/10/30 05:23:27;;;;;;;10.52;7.07;;;;;;;;;;7389645;19;20010;-60
2021/10/30 05:25:55;;;;;;;9.32;6.40;;;;;;;;;;7391644;19;20011;-60
2021/10/30 05:28:22;;;;;;;8.60;5.45;;;;;;;;;;7390153;19;20027;-60
2021/10/30 05:30:51;;;;;;;8.05;5.03;;;;;;;;;;7390727;19;20020;-59
2021/10/30 05:33:18;;;;;;;7.30;4.78;;;;;;;;;;7391363;19;20014;-58
2021/10/30 05:35:58;;;;;;;25.30;14.50;;;;;;;;;;7392002;19;20019;-61
2021/10/30 05:38:51;;;;;;;23.85;11.38;;;;;;;;;;7391337;19;20011;-61
2021/10/30 05:41:19;;;;;;;10.98;6.93;;;;;;;;;;7390829;19;20011;-60
2021/10/30 05:43:47;;;;;;;10.40;6.50;;;;;;;;;;7389260;19;20074;-59
2021/10/30 05:46:15;;;;;;;9.60;5.68;;;;;;;;;;7390254;19;20021;-60
2021/10/30 05:48:43;;;;;;;12.68;6.15;;;;;;;;;;7394901;19;20074;-60
2021/10/30 05:51:12;;;;;;;11.80;7.50;;;;;;;;;;7389532;19;20018;-60
2021/10/30 05:53:40;;;;;;;11.30;7.57;;;;;;;;;;7391543;19;20035;-60
2021/10/30 05:56:08;;;;;;;141.82;60.47;;;;;;;;;;7390334;19;20050;-59
2021/10/30 05:58:36;;;;;;;25.75;14.90;;;;;;;;;;7390073;19;20034;-60
2021/10/30 06:01:04;;;;;;;12.23;8.32;;;;;;;;;;7390209;19;20015;-59
2021/10/30 06:03:31;;;;;;;12.80;7.60;;;;;;;;;;7389203;19;20030;-60
2021/10/30 06:05:59;;;;;;;10.52;6.57;;;;;;;;;;7390499;19;20022;-61
2021/10/30 06:08:26;;;;;;;10.13;7.13;;;;;;;;;;7389988;19;20018;-60
2021/10/30 06:10:54;;;;;;;12.60;8.10;;;;;;;;;;7389823;19;20015;-60
2021/10/30 06:13:23;;;;;;;12.52;7.50;;;;;;;;;;7389904;19;20011;-60
2021/10/30 06:15:50;;;;;;;12.07;8.05;;;;;;;;;;7390223;19;20018;-59
2021/10/30 06:18:18;;;;;;;13.13;7.80;;;;;;;;;;7389893;19;20027;-60
2021/10/30 06:20:46;;;;;;;86.32;40.20;;;;;;;;;;7390142;19;20123;-59
2021/10/30 06:23:15;;;;;;;34.78;19.48;;;;;;;;;;7392919;19;20017;-60
2021/10/30 06:25:43;;;;;;;14.55;9.82;;;;;;;;;;7389990;19;20014;-60
2021/10/30 06:28:11;;;;;;;13.43;8.07;;;;;;;;;;7390075;19;20015;-61
2021/10/30 06:30:39;;;;;;;13.48;8.18;;;;;;;;;;7389637;19;20014;-60
2021/10/30 06:33:08;;;;;;;14.27;9.23;;;;;;;;;;7388015;19;20037;-60
2021/10/30 06:35:35;;;;;;;12.85;8.02;;;;;;;;;;7389231;19;20007;-59
2021/10/30 06:38:03;;;;;;;11.98;8.27;;;;;;;;;;7389716;19;20010;-60
2021/10/30 06:40:30;;;;;;;14.30;9.68;;;;;;;;;;7391549;19;20467;-61
2021/10/30 06:42:58;;;;;;;81.53;38.20;;;;;;;;;;7396813;19;20021;-59
2021/10/30 06:45:25;;;;;;;28.13;17.77;;;;;;;;;;7397067;19;20018;-60
2021/10/30 06:47:52;;;;;;;18.15;11.77;;;;;;;;;;7396582;19;20022;-60
2021/10/30 06:50:21;;;;;;;16.75;10.00;;;;;;;;;;7395281;19;20039;-60
2021/10/30 06:52:53;;;;;;;13.65;9.65;;;;;;;;;;7393894;19;20035;-60
2021/10/30 06:55:21;;;;;;;15.50;9.10;;;;;;;;;;7395491;19;20095;-59
2021/10/30 06:57:49;;;;;;;15.20;9.75;;;;;;;;;;7395127;19;20010;-60
2021/10/30 07:00:18;;;;;;;16.17;9.80;;;;;;;;;;7398605;19;20022;-60
2021/10/30 07:02:47;;;;;;;15.30;9.27;;;;;;;;;;7396617;19;20072;-61
2021/10/30 07:05:15;;;;;;;88.35;47.38;;;;;;;;;;7396419;19;20478;-60
2021/10/30 07:07:43;;;;;;;30.75;16.23;;;;;;;;;;7396844;19;20011;-60
2021/10/30 07:10:10;;;;;;;16.02;11.07;;;;;;;;;;7394329;19;20066;-59
2021/10/30 07:12:38;;;;;;;14.25;9.98;;;;;;;;;;7394016;19;20015;-60
2021/10/30 07:15:09;;;;;;;18.85;10.32;;;;;;;;;;7399296;19;20018;-59
2021/10/30 07:17:38;;;;;;;15.55;10.73;;;;;;;;;;7395674;19;20010;-60
2021/10/30 07:20:07;;;;;;;14.32;9.73;;;;;;;;;;7398694;19;20015;-60
2021/10/30 07:22:46;;;;;;;18.02;11.02;;;;;;;;;;7395438;19;20073;-60
2021/10/30 07:25:15;;;;;;;17.90;11.52;;;;;;;;;;7395208;19;20483;-60
2021/10/30 07:27:43;;;;;;;20.13;13.38;;;;;;;;;;7395374;19;20017;-60
2021/10/30 07:30:12;;;;;;;17.90;12.73;;;;;;;;;;7395099;19;20007;-60
2021/10/30 07:32:40;;;;;;;20.58;12.40;;;;;;;;;;7393561;19;20026;-60
2021/10/30 07:35:08;;;;;;;19.42;11.00;;;;;;;;;;7395198;19;20040;-59
2021/10/30 07:37:36;;;;;;;17.05;11.60;;;;;;;;;;7394767;19;20014;-59
2021/10/30 07:40:05;;;;;;;230.50;137.82;;;;;;;;;;7394815;19;20070;-61
2021/10/30 07:42:33;;;;;;;49.60;30.65;;;;;;;;;;7394443;19;20014;-60
2021/10/30 07:45:01;;;;;;;22.92;14.50;;;;;;;;;;7394667;19;20021;-60
2021/10/30 07:47:28;;;;;;;19.08;12.70;;;;;;;;;;7394829;19;20071;-60
2021/10/30 07:49:58;;;;;;;14.68;10.90;;;;;;;;;;7393862;19;20475;-60
2021/10/30 07:52:25;;;;;;;18.33;12.40;;;;;;;;;;7392080;19;20479;-61
2021/10/30 07:54:53;;;;;;;20.48;12.88;;;;;;;;;;7395721;19;20027;-60
2021/10/30 07:57:20;;;;;;;19.42;12.63;;;;;;;;;;7397452;19;20010;-60
2021/10/30 07:59:50;;;;;;;19.92;13.07;;;;;;;;;;7394623;19;20010;-60
2021/10/30 08:02:21;;;;;;;19.02;12.65;;;;;;;;;;7394548;19;20015;-60
2021/10/30 08:04:48;;;;;;;16.92;12.13;;;;;;;;;;7394194;19;20498;-60
2021/10/30 08:07:16;;;;;;;19.80;12.85;;;;;;;;;;7393942;19;20007;-60
2021/10/30 08:09:44;;;;;;;22.67;14.93;;;;;;;;;;7394010;19;20034;-59
2021/10/30 08:12:12;;;;;;;32.42;18.25;;;;;;;;;;7392918;19;20594;-60
2021/10/30 08:14:40;;;;;;;26.50;15.32;;;;;;;;;;7396424;19;20085;-60
2021/10/30 08:17:08;;;;;;;23.63;16.50;;;;;;;;;;7394080;19;20105;-60
2021/10/30 08:19:35;;;;;;;21.63;14.85;;;;;;;;;;7393646;19;20448;-59
2021/10/30 08:22:03;;;;;;;23.98;13.85;;;;;;;;;;7393687;19;20042;-60
2021/10/30 08:24:30;;;;;;;22.08;13.90;;;;;;;;;;7393079;19;20021;-60
2021/10/30 08:26:58;;;;;;;17.85;12.85;;;;;;;;;;7393188;19;20021;-60
2021/10/30 08:29:25;;;;;;;21.23;12.93;;;;;;;;;;7393451;19;20070;-60
2021/10/30 08:31:53;;;;;;;18.08;12.77;;;;;;;;;;7392562;19;20025;-60
2021/10/30 08:34:20;;;;;;;24.25;15.43;;;;;;;;;;7391573;19;20352;-59
2021/10/30 08:36:47;;;;;;;20.58;13.63;;;;;;;;;;7392704;19;20136;-60
2021/10/30 08:39:15;;;;;;;22.98;14.07;;;;;;;;;;7393142;19;20011;-60
2021/10/30 08:41:42;;;;;;;20.20;13.23;;;;;;;;;;7392281;19;20006;-60
2021/10/30 08:44:10;;;;;;;18.25;11.68;;;;;;;;;;7393162;19;20014;-59
2021/10/30 08:46:38;;;;;;;15.32;11.25;;;;;;;;;;7393034;19;20010;-60
2021/10/30 08:49:09;;;;;;;20.23;11.73;;;;;;;;;;7391715;19;20011;-60
2021/10/30 08:51:40;;;;;;;17.25;10.90;;;;;;;;;;7390075;19;20494;-60
2021/10/30 08:54:08;;;;;;;19.42;13.73;;;;;;;;;;7390842;19;20355;-60
2021/10/30 08:56:38;;;;;;;16.75;11.73;;;;;;;;;;7392237;19;20028;-60
2021/10/30 08:59:07;;;;;;;18.90;11.02;;;;;;;;;;7392525;19;20011;-59
2021/10/30 09:01:50;;;;;;;18.60;12.02;;;;;;;;;;7392152;19;20014;-59
2021/10/30 09:04:18;;;;;;;22.07;13.67;;;;;;;;;;7393347;19;20014;-60
2021/10/30 09:07:09;;;;;;;14.15;10.10;;;;;;;;;;7396334;19;20018;-60
2021/10/30 09:09:37;;;;;;;16.25;10.48;;;;;;;;;;7390742;19;20021;-60
2021/10/30 09:12:05;;;;;;;14.50;9.60;;;;;;;;;;7391164;19;20011;-59
2021/10/30 09:14:43;;;;;;;15.23;11.40;;;;;;;;;;7394014;19;20027;-59
2021/10/30 09:17:19;;;;;;;17.98;11.43;;;;;;;;;;7391534;19;20018;-60
2021/10/30 09:19:55;;;;;;;14.68;10.60;;;;;;;;;;7391738;19;20489;-60
2021/10/30 09:22:24;;;;;;;15.43;10.82;;;;;;;;;;7390399;19;20017;-60
2021/10/30 09:24:58;;;;;;;17.75;10.85;;;;;;;;;;7396010;19;20018;-60
2021/10/30 09:27:44;;;;;;;;;;;;;;;;;;7391177;19;20078;-60
2021/10/30 09:30:15;;;;;;;15.45;9.43;;;;;;;;;;7391293;19;19914;-60
2021/10/30 09:32:56;;;;;;;14.52;9.73;;;;;;;;;;7391528;19;20015;-60
2021/10/30 09:35:31;;;;;;;14.18;9.63;;;;;;;;;;7395411;19;20010;-60
2021/10/30 09:37:59;;;;;;;17.13;11.30;;;;;;;;;;7390936;19;20339;-60
2021/10/30 09:40:31;;;;;;;17.02;9.98;;;;;;;;;;7390980;19;20141;-60
2021/10/30 09:43:09;;;;;;;78.47;34.80;;;;;;;;;;7388736;19;20367;-59
2021/10/30 09:45:49;;;;;;;19.88;12.52;;;;;;;;;;7390843;19;20015;-59
2021/10/30 09:48:22;;;;;;;15.98;10.02;;;;;;;;;;7393724;19;20478;-59
2021/10/30 09:50:56;;;;;;;15.27;11.02;;;;;;;;;;7389434;19;20029;-59
2021/10/30 09:53:28;;;;;;;13.30;9.10;;;;;;;;;;7389425;19;20039;-59
2021/10/30 09:55:59;;;;;;;15.20;10.43;;;;;;;;;;7390682;19;20014;-59
2021/10/30 09:58:34;;;;;;;14.98;9.40;;;;;;;;;;7390971;19;20015;-60
2021/10/30 10:01:08;;;;;;;16.13;10.52;;;;;;;;;;7390278;19;20070;-60
2021/10/30 10:03:37;;;;;;;16.10;10.30;;;;;;;;;;7390510;19;20033;-59
2021/10/30 10:06:08;;;;;;;16.55;10.23;;;;;;;;;;7390314;19;20018;-60
2021/10/30 10:08:42;;;;;;;14.00;10.48;;;;;;;;;;7390352;19;20049;-58
2021/10/30 10:11:14;;;;;;;22.08;14.60;;;;;;;;;;7390469;19;20010;-60
2021/10/30 10:13:44;;;;;;;17.02;10.60;;;;;;;;;;7389789;19;20015;-60
2021/10/30 10:16:16;;;;;;;15.65;10.32;;;;;;;;;;7398025;19;20010;-61
2021/10/30 10:18:45;;;;;;;17.70;11.40;;;;;;;;;;7397904;19;20022;-59
2021/10/30 10:21:18;;;;;;;15.90;9.70;;;;;;;;;;7397885;19;20021;-60
2021/10/30 10:23:47;;;;;;;15.68;10.38;;;;;;;;;;7401441;19;20021;-59
2021/10/30 10:26:15;;;;;;;15.40;10.80;;;;;;;;;;7397278;19;20011;-60
2021/10/30 10:28:43;;;;;;;16.98;10.00;;;;;;;;;;7397492;19;20007;-60
2021/10/30 10:31:25;;;;;;;13.00;9.05;;;;;;;;;;7400111;19;20022;-60
2021/10/30 10:34:16;;;;;;;14.20;9.55;;;;;;;;;;7395003;19;20112;-60
2021/10/30 10:36:45;;;;;;;13.20;9.75;;;;;;;;;;7396933;19;20351;-60
2021/10/30 10:39:18;;;;;;;15.93;10.45;;;;;;;;;;7397397;19;20035;-60
2021/10/30 10:41:47;;;;;;;15.23;9.07;;;;;;;;;;7396632;19;20014;-59
2021/10/30 10:44:27;;;;;;;14.20;10.02;;;;;;;;;;7396839;19;20033;-59
2021/10/30 10:46:59;;;;;;;26.80;14.95;;;;;;;;;;7397110;19;20010;-60
2021/10/30 10:54:56;;;;;;;14.55;10.20;;;;;;;;;;7396834;19;20039;-59
2021/10/30 10:57:25;;;;;;;15.50;10.85;;;;;;;;;;7396429;19;20018;-60
2021/10/30 11:00:05;;;;;;;15.73;9.70;;;;;;;;;;7396250;19;20013;-60
2021/10/30 11:02:35;;;;;;;14.65;10.70;;;;;;;;;;7395976;19;20010;-60
2021/10/30 11:05:10;;;;;;;16.23;10.35;;;;;;;;;;7395484;19;20019;-60
2021/10/30 11:07:39;;;;;;;14.40;10.20;;;;;;;;;;7400351;19;20034;-59
2021/10/30 11:10:08;;;;;;;15.15;10.15;;;;;;;;;;7395978;19;20021;-59
2021/10/30 11:12:36;;;;;;;15.07;10.68;;;;;;;;;;7394958;19;20014;-60
2021/10/30 11:15:13;;;;;;;16.83;10.05;;;;;;;;;;7399395;19;20018;-60
2021/10/30 11:18:00;;;;;;;79.28;38.38;;;;;;;;;;7395925;19;20021;-59
2021/10/30 11:20:46;;;;;;;22.48;13.20;;;;;;;;;;7399516;19;20008;-60
2021/10/30 11:23:18;;;;;;;17.02;10.38;;;;;;;;;;7396170;19;20078;-59
2021/10/30 11:25:54;;;;;;;22.08;11.05;;;;;;;;;;7393023;19;20462;-60
2021/10/30 11:28:25;;;;;;;17.17;11.45;;;;;;;;;;7395432;19;20019;-60
2021/10/30 11:30:52;;;;;;;15.00;10.13;;;;;;;;;;7395072;19;20016;-60
2021/10/30 11:33:31;;;;;;;14.95;10.35;;;;;;;;;;7394079;19;20010;-60
2021/10/30 11:36:00;;;;;;;17.50;11.18;;;;;;;;;;7395357;19;20013;-61
2021/10/30 11:38:34;;;;;;;737.78;385.42;;;;;;;;;;7395336;19;20491;-49
2021/10/30 11:41:04;;;;;;;39.13;24.15;;;;;;;;;;7394712;19;20490;-60
2021/10/30 11:43:34;;;;;;;18.50;12.35;;;;;;;;;;7393788;19;20053;-60
2021/10/30 11:46:05;;;;;;;14.07;10.02;;;;;;;;;;7392425;19;20503;-60
2021/10/30 11:48:39;;;;;;;18.67;10.73;;;;;;;;;;7394761;19;20013;-61
2021/10/30 11:51:08;;;;;;;20.08;11.57;;;;;;;;;;7392766;19;20019;-60
2021/10/30 11:53:40;;;;;;;17.63;11.48;;;;;;;;;;7393394;19;20089;-60
2021/10/30 11:56:11;;;;;;;18.60;11.77;;;;;;;;;;7394537;19;20021;-60
2021/10/30 11:58:45;;;;;;;20.55;11.38;;;;;;;;;;7394638;19;20094;-61
2021/10/30 12:01:28;;;;;;;18.40;12.18;;;;;;;;;;7393910;19;20015;-61
2021/10/30 12:03:57;;;;;;;14.95;10.52;;;;;;;;;;7395287;19;20019;-60
2021/10/30 12:06:46;;;;;;;19.77;12.30;;;;;;;;;;7393649;19;20006;-60
2021/10/30 12:09:15;;;;;;;17.13;11.85;;;;;;;;;;7393910;19;20007;-61
2021/10/30 12:11:42;;;;;;;21.30;10.88;;;;;;;;;;7396258;19;20014;-61
2021/10/30 12:14:10;;;;;;;21.90;13.23;;;;;;;;;;7393126;19;20369;-60
2021/10/30 12:16:38;;;;;;;19.33;11.98;;;;;;;;;;7391758;19;20352;-60
2021/10/30 12:19:06;;;;;;;26.80;15.80;;;;;;;;;;7393693;19;20022;-60
2021/10/30 12:21:35;;;;;;;56.97;34.85;;;;;;;;;;7393648;19;20013;-60
2021/10/30 12:24:11;;;;;;;26.63;15.05;;;;;;;;;;7394330;19;20014;-60
2021/10/30 12:26:54;;;;;;;21.17;12.57;;;;;;;;;;7393260;19;20015;-60
2021/10/30 12:29:28;;;;;;;21.02;14.05;;;;;;;;;;7394883;19;20037;-60
2021/10/30 12:32:01;;;;;;;18.85;12.32;;;;;;;;;;7394094;19;20011;-60
2021/10/30 12:34:30;;;;;;;18.20;11.43;;;;;;;;;;7391432;19;20002;-60
2021/10/30 12:37:02;;;;;;;18.80;12.35;;;;;;;;;;7393904;19;20014;-60
2021/10/30 12:39:30;;;;;;;18.80;12.75;;;;;;;;;;7393601;19;20017;-59
2021/10/30 12:42:04;;;;;;;17.38;11.75;;;;;;;;;;7393321;19;20018;-61
2021/10/30 12:44:32;;;;;;;;;;;;;;;;;;7393245;19;20021;-61
2021/10/30 12:47:03;;;;;;;19.98;12.45;;;;;;;;;;7392973;19;19914;-61
2021/10/30 12:49:33;;;;;;;21.13;11.77;;;;;;;;;;7392281;19;20308;-61
2021/10/30 12:52:21;;;;;;;16.90;12.20;;;;;;;;;;7392748;19;20018;-60
2021/10/30 12:54:56;;;;;;;21.15;13.90;;;;;;;;;;7390936;19;20078;-61
2021/10/30 12:57:26;;;;;;;19.15;11.90;;;;;;;;;;7392200;19;20014;-61
2021/10/30 13:00:06;;;;;;;19.88;12.65;;;;;;;;;;7392107;19;20018;-61
2021/10/30 13:02:33;;;;;;;22.33;13.43;;;;;;;;;;7392501;19;20085;-61
2021/10/30 13:05:11;;;;;;;20.45;12.25;;;;;;;;;;7392286;19;20010;-61
2021/10/30 13:07:41;;;;;;;23.25;13.23;;;;;;;;;;7391557;19;20023;-61
2021/10/30 13:10:14;;;;;;;40.97;22.20;;;;;;;;;;7393193;19;20020;-57
2021/10/30 13:12:42;;;;;;;20.67;13.38;;;;;;;;;;7391838;19;20035;-61
2021/10/30 13:15:10;;;;;;;22.00;12.93;;;;;;;;;;7396062;19;20018;-59
2021/10/30 13:17:38;;;;;;;18.95;12.45;;;;;;;;;;7391898;19;20539;-60
2021/10/30 13:20:05;;;;;;;22.13;13.07;;;;;;;;;;7391955;19;20011;-59
2021/10/30 13:22:33;;;;;;;24.05;13.18;;;;;;;;;;7391422;19;20025;-60
2021/10/30 13:25:00;;;;;;;23.10;13.38;;;;;;;;;;7388986;19;20475;-60
2021/10/30 13:27:29;;;;;;;18.92;12.88;;;;;;;;;;7391876;19;20498;-59
2021/10/30 13:29:57;;;;;;;19.70;12.15;;;;;;;;;;7391863;19;20007;-60
2021/10/30 13:32:24;;;;;;;21.02;14.35;;;;;;;;;;7391480;19;20019;-60
2021/10/30 13:34:52;;;;;;;18.48;12.88;;;;;;;;;;7389740;19;20014;-61
2021/10/30 13:37:19;;;;;;;21.17;12.20;;;;;;;;;;7391668;19;20021;-61
2021/10/30 13:39:46;;;;;;;17.67;11.10;;;;;;;;;;7391286;19;20038;-60
2021/10/30 13:42:14;;;;;;;21.05;12.65;;;;;;;;;;7390870;19;20017;-60
2021/10/30 13:44:41;;;;;;;18.45;12.48;;;;;;;;;;7390804;19;20014;-60
2021/10/30 13:47:11;;;;;;;17.95;11.95;;;;;;;;;;7391382;19;20006;-60
2021/10/30 13:49:39;;;;;;;22.67;12.65;;;;;;;;;;7389090;19;20033;-61
2021/10/30 13:52:07;;;;;;;19.42;12.75;;;;;;;;;;7390864;19;20011;-60
2021/10/30 13:54:35;;;;;;;17.27;11.88;;;;;;;;;;7389185;19;20515;-60
2021/10/30 13:57:02;;;;;;;18.17;12.98;;;;;;;;;;7390382;19;20006;-60
2021/10/30 13:59:37;;;;;;;24.17;14.90;;;;;;;;;;7390508;19;20070;-60
2021/10/30 14:02:05;;;;;;;20.85;14.27;;;;;;;;;;7390273;19;20021;-60
2021/10/30 14:04:33;;;;;;;20.60;13.85;;;;;;;;;;7388543;19;20372;-60
2021/10/30 14:07:01;;;;;;;21.05;14.15;;;;;;;;;;7390329;19;20095;-60
2021/10/30 14:09:28;;;;;;;18.02;11.68;;;;;;;;;;7390893;19;20015;-60
2021/10/30 14:11:56;;;;;;;22.15;13.73;;;;;;;;;;7390625;19;20025;-60
2021/10/30 14:14:23;;;;;;;21.67;13.30;;;;;;;;;;7388006;19;20022;-60
2021/10/30 14:16:51;;;;;;;107.03;49.08;;;;;;;;;;7388091;19;20734;-60
2021/10/30 14:19:21;;;;;;;31.52;17.13;;;;;;;;;;7389638;19;20014;-60
2021/10/30 14:21:50;;;;;;;23.13;14.43;;;;;;;;;;7390041;19;20603;-59
2021/10/30 14:24:18;;;;;;;22.88;16.25;;;;;;;;;;7393203;19;20097;-59
2021/10/30 14:26:46;;;;;;;20.77;14.13;;;;;;;;;;7389240;19;20343;-59
2021/10/30 14:29:13;;;;;;;25.48;14.90;;;;;;;;;;7390030;19;20038;-59
2021/10/30 14:31:41;;;;;;;23.00;13.63;;;;;;;;;;7389592;19;20013;-59
2021/10/30 14:34:08;;;;;;;22.13;15.10;;;;;;;;;;7388525;19;20021;-59
2021/10/30 14:36:36;;;;;;;22.38;14.63;;;;;;;;;;7389488;19;20023;-60
2021/10/30 14:39:03;;;;;;;22.80;14.82;;;;;;;;;;7389671;19;20082;-61
2021/10/30 14:41:33;;;;;;;19.52;14.13;;;;;;;;;;7389279;19;20011;-60
2021/10/30 14:44:00;;;;;;;22.27;14.23;;;;;;;;;;7389740;19;20011;-60
2021/10/30 14:46:30;;;;;;;22.25;14.95;;;;;;;;;;7389871;19;20006;-60
2021/10/30 14:48:57;;;;;;;21.92;13.27;;;;;;;;;;7389318;19;20007;-59